Bo Airport

Jump to: basic info | weather | comments

Related pages: nearby airports | nearby navaids | notams | map

Basic information (top)

Codes: KBS GFBO
Location: lon 7.944400, lat -11.761000, elev 328 ft / 100 m msl
Status: medium_airport
Scheduled airline service: yes
Links: Wikipedia Mobile

Weather (top)

Current conditions for Lungi International Airport 94nm (175km) WNW (rec'd 2014/10/21 16:00Z):

GFLL 211600Z 25006KTS 9999 BKN014 FEW027CB 31/25 Q1009 RMK CB NE

Airport forecast for Lungi International Airport 94nm (175km) WNW (rec'd 2014/10/21 18:00Z):

TAF GFLL 211600Z 2118/2224 27008KT 999 TSRA BKN010 SCT014 FEW027CB PROB30 
      TEMPO 2120/2204 12008KT 7000 TS/TSRA BKN010 FEW027CB 
      BECMG 2205/2207 12007KT 4000 BR BKN009 
      TEMPO 2208/2214 27010KT 9000 B KN012 FEW027CB

Latest comments (top)

No comments yet for Bo Airport

More... (top)

See also NOTAMs and nearby airports and navaids, or visit the Bo Airport page at the main OurAirports website..